Corunna, Indiana
Current Conditions -  °F | °C
As of 12:55 AM on Friday 28 Nov 2014 (Local Time) from KGWB Reporting Station
Light Snow Light Snow  
Wind Chill: 18°   Ceiling: 2300
Heat Index: 25°   Visibility: 10mi
Dew Point: 19°   Wind: 6mph
Humidity: 80%   Direction: 270°W
Pressure: 30.35"   Gusts: NA
Location:  41.44°N, 85.15°W
Report Text: KGWB 280555Z AUTO 27005KT 10SM -SN OVC023 M04/M07 A3035 RMK AO2
Loading
Personal Weather Stations






























Interactive Weather Map New forecast layout! Learn more

10-Day Weather Forecast

Advertisements
Track Severe Weather on mobile